Weather observations for the past three days for
Pohnpei Island
Metric (Imperial)
Date Time (+11) Wind (kph) Vis. (km) Weather Sky Cond. Temperature (ºC) Relative Humidity Wind Chill (°C) Heat Index (°C) Pressure Precipitation (cm)
Air Dwpt 6 hour altimeter (cm) sea level (mb) 1 hr 3 hr 6 hr
Max. Min.
07 14:54 E 22 22.53 Light Rain BKN017TCU OVC120 28 25 84% 33 75.44 0.0
07 13:51 E 20 G 31 16.09 Light Rain BKN017TCU OVC120 28 25 84% 33 75.57 0.0
07 12:57 E 20 16.09 Showers in Vicinity BKN017TCU OVC120 28 25 84% 33 75.57 0.0
07 11:58 E 24 22.53 Showers in Vicinity BKN017TCU OVC120 28 25 84% 33 75.59 0.0
07 10:58 E 24 22.53 Light Rain BKN017TCU OVC120 27 25 89% 31 75.62 0.0
07 09:51 E 15 19.31 Light Rain BKN017TCU OVC120 26 25 94% 28 75.69 0.0
07 08:51 E 7 20.92 Light Rain BKN017TCU OVC120 26 25 94% 28 75.72 0.0
07 07:57 E 7 20.92 Light Rain BKN017TCU OVC120 26 25 94% 28 75.69 0.0
06 17:53 NE 19 4.83 Light Showers Rain BKN017CB OVC120 26 25 94% 28 75.54 0.0
06 16:53 E 11 11.27 Light Showers Rain BKN017CB OVC120 26 25 94% 28 75.49 0.0
06 16:30 E 19 3.22 Showers Rain BKN017CB OVC120 27 25 89% 31 75.46 0.0
06 15:56 E 19 24.14 Overcast SCT017CB BKN130 OVC300 31 25 70% 38 75.46 0.0
06 14:55 E 13 24.14 Mostly Cloudy SCT017TCU BKN130 BKN300 30 26 79% 37 75.49 0.0
06 13:56 E 13 24.14 Mostly Cloudy SCT017CB BKN130 BKN300 29 26 84% 36 75.51 0.0
06 12:52 SE 15 24.14 Mostly Cloudy SCT017CB BKN130 BKN300 31 25 70% 38 75.54 0.0
06 11:53 E 20 24.14 Mostly Cloudy SCT017CB BKN130 BKN300 32 26 71% 41 75.57 0.0
06 10:53 E 20 24.14 Mostly Cloudy SCT017CB BKN130 BKN300 32 26 71% 41 75.59 0.0
06 09:58 E 15 24.14 Mostly Cloudy SCT017 BKN130 BKN300 29 26 84% 36 75.59 0.0
06 08:59 E 15 24.14 Overcast SCT018TCU BKN130 OVC300 28 26 89% 34 75.57 0.0
06 08:54 NE 15 24.14 Mostly Cloudy SCT017CB BKN130 BKN300 28 26 89% 34 75.62 0.0
06 07:59 NE 15 24.14 Overcast SCT017CB BKN130 OVC300 28 26 89% 34 75.57 0.0
05 15:56 NE 15 24.14 Overcast BKN018TCU OVC130 31 25 70% 38 75.51 0.0
05 14:56 NE 19 24.14 Overcast BKN018TCU OVC130 31 25 70% 38 75.54 0.0
05 13:55 NE 19 24.14 Overcast BKN018TCU OVC300 31 25 70% 38 75.57 0.0
05 11:52 NE 15 G 31 24.14 Overcast BKN017TCU OVC300 30 25 75% 36 75.64 0.0
05 10:58 NE 19 G 31 24.14 Overcast BKN017TCU OVC130 31 25 70% 38 75.64 0.0
05 09:58 E 26 24.14 Overcast BKN017TCU OVC130 29 25 79% 35 75.67 0.0
05 08:58 E 20 24.14 Overcast BKN017TCU BKN120 OVC280 29 25 79% 35 75.64 0.0
05 07:54 E 24 24.14 Overcast BKN017TCU BKN120 OVC280 28 25 84% 33 75.64 0.0
05 06:55 E 7 24.14 Overcast BKN017TCU BKN120 OVC280 27 25 89% 31 75.62 0.0
05 05:53 NE 7 24.14 Overcast BKN017TCU OVC120 25 24 94% 26 75.64 0.0
05 05:15 E 7 20.92 Overcast BKN017TCU OVC120 25 24 94% 26 75.64 0.0
Date Time (+11) Wind (kph) Vis. (km) Weather Sky Cond. Air Dwpt Max. Min. Relative Humidity Wind Chill (°C) Heat Index (°C) altimeter (cm) sea level (mb) 1 hr 3 hr 6 hr
6 hour
Temperature (ºC) Pressure Precipitation (cm)